Terminal Aerodrome Forecast
Issued by NWS Sterling, VA

Home | Current Version | Previous Version | Text Only | Print | Product List | Glossary On
Versions: 1 2 3 4 5 6 7 8 9 10 11 12
455
FTUS41 KLWX 261725
TAFCHO
TAF
KCHO 261725Z 2618/2718 21006KT P6SM VCTS BKN070CB
     FM270100 VRB03KT P6SM BKN070
     FM270400 VRB03KT P6SM SCT070
     FM270600 VRB03KT 4SM BR SCT090
     FM271200 VRB03KT P6SM SCT130=

USA.gov is the U.S. government's official web portal to all federal, state and local government web resources and services.